SAN BERNARDINO INTERNATIONAL AIRPORT (SBD)

2022 NOV 3018:28Z
Elevation1159 Ft
Temperature12C 54F
Dew Point6C 42F
Altimeter30.05 inHg
Relative Humidity64%
Wind270 DEG 04 KTS
SkyClear Below 12,000 Ft
Visibility10 SM
Present Weatherclear
METAR KSBD 301819Z AUTO 29005KT 7SM CLR 12/06 A3006 RMK AO2

For up-to-the-minute weather information at SBD, call onsite AWOS at (909) 382-0067.